createdAt,value
2023-05-08T00:03:49.083Z,5.25
2023-05-08T00:08:51.000Z,5.22
2023-05-08T00:13:52.417Z,6.20
2023-05-08T00:18:54.845Z,10.85
2023-05-08T00:23:56.284Z,6.28
2023-05-08T00:28:57.706Z,8.00
2023-05-08T00:33:59.148Z,10.25
2023-05-08T00:39:00.633Z,10.15
2023-05-08T00:44:02.107Z,10.00
2023-05-08T00:49:05.845Z,8.40
2023-05-08T00:54:07.376Z,7.18
2023-05-08T00:59:13.667Z,7.53
2023-05-08T01:04:15.163Z,7.38
2023-05-08T01:09:16.585Z,8.32
2023-05-08T01:14:29.880Z,7.28
2023-05-08T01:19:43.192Z,6.70
2023-05-08T01:25:12.482Z,6.70
2023-05-08T01:35:29.126Z,7.40
2023-05-08T01:40:45.965Z,7.47
2023-05-08T01:45:50.120Z,6.68
2023-05-08T01:51:00.647Z,7.03
2023-05-08T01:56:09.574Z,7.28
2023-05-08T02:01:13.781Z,7.10
2023-05-08T02:06:17.765Z,7.00
2023-05-08T02:11:21.655Z,6.88
2023-05-08T02:16:25.802Z,6.55
2023-05-08T02:21:28.688Z,7.35
2023-05-08T02:26:32.033Z,6.60
2023-05-08T02:31:34.748Z,6.78
2023-05-08T02:36:38.238Z,6.50
2023-05-08T02:41:41.158Z,7.38
2023-05-08T02:47:07.235Z,6.90
2023-05-08T02:52:14.243Z,6.65
2023-05-08T02:57:37.616Z,6.70
2023-05-08T03:02:48.406Z,6.82
2023-05-08T03:07:52.879Z,6.68
2023-05-08T03:12:56.832Z,7.13
2023-05-08T03:18:04.476Z,7.32
2023-05-08T03:23:09.045Z,7.38
2023-05-08T03:28:11.539Z,7.55
2023-05-08T03:33:13.964Z,6.70
2023-05-08T03:38:16.295Z,6.75
2023-05-08T03:43:19.413Z,6.50
2023-05-08T03:48:22.835Z,7.32
2023-05-08T03:53:24.720Z,6.60
2023-05-08T03:58:48.635Z,6.75
2023-05-08T04:03:54.541Z,6.47
2023-05-08T04:09:08.502Z,6.63
2023-05-08T04:14:16.291Z,6.18
2023-05-08T04:19:27.498Z,6.05
2023-05-08T04:24:30.416Z,5.93
2023-05-08T04:29:33.359Z,6.38
2023-05-08T04:34:35.715Z,6.03
2023-05-08T04:39:37.136Z,6.45
2023-05-08T04:44:38.581Z,6.00
2023-05-08T04:49:40.072Z,5.80
2023-05-08T04:54:42.521Z,5.97
2023-05-08T04:59:43.965Z,6.10
2023-05-08T05:04:45.426Z,6.13
2023-05-08T05:09:46.839Z,5.32
2023-05-08T05:14:48.298Z,6.13
2023-05-08T05:19:50.943Z,5.97
2023-05-08T05:24:53.571Z,5.85
2023-05-08T05:29:55.024Z,5.90
2023-05-08T05:34:56.852Z,6.13
2023-05-08T05:39:58.275Z,5.50
2023-05-08T05:44:59.720Z,6.07
2023-05-08T05:50:01.398Z,5.85
2023-05-08T05:55:03.124Z,5.90
2023-05-08T06:00:05.949Z,5.88
2023-05-08T06:05:08.493Z,5.28
2023-05-08T06:10:10.995Z,5.45
2023-05-08T06:15:14.786Z,5.70
2023-05-08T06:20:16.452Z,5.55
2023-05-08T06:25:17.939Z,5.40
2023-05-08T06:30:19.515Z,5.60
2023-05-08T06:35:20.964Z,4.72
2023-05-08T06:40:23.606Z,4.68
2023-05-08T06:45:25.149Z,4.70
2023-05-08T06:50:26.798Z,4.75
2023-05-08T06:55:28.323Z,4.05
2023-05-08T07:00:29.778Z,4.93
2023-05-08T07:05:31.203Z,3.28
2023-05-08T07:10:32.626Z,4.75
2023-05-08T07:15:34.133Z,4.30
2023-05-08T07:20:35.711Z,4.13
2023-05-08T07:25:37.256Z,4.30
2023-05-08T07:30:38.669Z,3.42
2023-05-08T07:35:40.950Z,3.97
2023-05-08T07:40:42.385Z,4.30
2023-05-08T07:45:43.827Z,4.05
2023-05-08T07:50:45.670Z,4.45
2023-05-08T07:55:47.145Z,4.60
2023-05-08T08:00:48.583Z,4.03
2023-05-08T08:05:50.035Z,4.28
2023-05-08T08:10:51.473Z,4.18
2023-05-08T08:15:52.990Z,4.60
2023-05-08T08:20:54.438Z,4.50
2023-05-08T08:25:55.875Z,4.38
2023-05-08T08:30:57.424Z,5.43
2023-05-08T08:35:58.858Z,4.47
2023-05-08T08:41:00.358Z,4.32
2023-05-08T08:46:11.738Z,5.50
2023-05-08T08:51:28.429Z,4.40
2023-05-08T08:56:31.298Z,4.40
2023-05-08T09:01:39.675Z,4.13
2023-05-08T09:06:41.306Z,4.50
2023-05-08T09:11:46.020Z,4.82
2023-05-08T09:16:47.618Z,4.38
2023-05-08T09:21:49.209Z,3.80
2023-05-08T09:26:50.745Z,4.15
2023-05-08T09:31:53.196Z,5.00
2023-05-08T09:37:11.772Z,4.93
2023-05-08T09:42:13.894Z,5.68
2023-05-08T09:47:17.381Z,4.18
2023-05-08T09:52:18.845Z,4.90
2023-05-08T09:57:20.288Z,4.82
2023-05-08T10:02:21.807Z,4.47
2023-05-08T10:07:33.985Z,4.28
2023-05-08T10:12:37.863Z,5.07
2023-05-08T10:18:07.050Z,5.10
2023-05-08T10:23:13.740Z,5.68
2023-05-08T10:28:29.116Z,4.97
2023-05-08T10:33:32.028Z,4.95
2023-05-08T10:38:34.740Z,4.80
2023-05-08T10:43:41.304Z,4.60
2023-05-08T10:49:04.822Z,4.80
2023-05-08T10:54:12.893Z,4.57
2023-05-08T10:59:21.206Z,4.30
2023-05-08T11:04:23.879Z,5.00
2023-05-08T11:09:30.341Z,4.47
2023-05-08T11:14:33.474Z,4.28
2023-05-08T11:19:35.946Z,4.53
2023-05-08T11:24:39.034Z,3.80
2023-05-08T11:29:40.618Z,4.07
2023-05-08T11:34:42.180Z,4.13
2023-05-08T11:39:43.969Z,3.42
2023-05-08T11:44:45.631Z,3.65
2023-05-08T11:49:47.204Z,3.53
2023-05-08T11:54:48.864Z,3.60
2023-05-08T11:59:51.263Z,3.13
2023-05-08T12:04:53.118Z,3.72
2023-05-08T12:09:54.635Z,3.20
2023-05-08T12:14:56.057Z,3.38
2023-05-08T12:20:03.946Z,3.40
2023-05-08T12:25:07.105Z,2.97
2023-05-08T12:30:11.653Z,3.20
2023-05-08T12:35:14.071Z,3.10
2023-05-08T12:40:31.381Z,3.17
2023-05-08T12:45:35.807Z,3.30
2023-05-08T12:50:40.135Z,3.88
2023-05-08T12:55:52.749Z,3.20
2023-05-08T13:01:07.566Z,3.72
2023-05-08T13:06:20.875Z,3.35
2023-05-08T13:11:33.224Z,3.70
2023-05-08T13:16:45.173Z,3.40
2023-05-08T13:21:47.786Z,3.45
2023-05-08T13:26:49.213Z,3.08
2023-05-08T13:31:50.711Z,3.72
2023-05-08T13:36:52.519Z,3.55
2023-05-08T13:41:53.963Z,2.95
2023-05-08T13:46:55.468Z,3.13
2023-05-08T13:51:57.312Z,3.00
2023-05-08T13:56:58.995Z,2.72
2023-05-08T14:02:00.527Z,2.70
2023-05-08T14:07:02.136Z,2.80
2023-05-08T14:12:04.164Z,2.88
2023-05-08T14:17:06.072Z,3.35
2023-05-08T14:22:07.554Z,2.83
2023-05-08T14:27:08.994Z,3.20
2023-05-08T14:32:11.056Z,3.30
2023-05-08T14:37:13.091Z,3.03
2023-05-08T14:42:22.742Z,3.17
2023-05-08T14:47:24.799Z,3.30
2023-05-08T14:52:26.322Z,3.25
2023-05-08T14:57:27.770Z,2.78
2023-05-08T15:02:29.298Z,2.78
2023-05-08T15:07:31.015Z,2.72
2023-05-08T15:12:32.782Z,3.00
2023-05-08T15:17:37.263Z,2.63
2023-05-08T15:22:38.833Z,3.20
2023-05-08T15:27:41.640Z,3.00
2023-05-08T15:32:43.454Z,2.97
2023-05-08T15:37:45.032Z,2.60
2023-05-08T15:42:46.661Z,2.67
2023-05-08T15:47:48.115Z,2.78
2023-05-08T15:52:49.824Z,2.90
2023-05-08T15:57:51.343Z,3.05
2023-05-08T16:02:52.870Z,2.70
2023-05-08T16:07:55.604Z,2.45
2023-05-08T16:12:57.119Z,2.80
2023-05-08T16:17:59.385Z,2.70
2023-05-08T16:23:00.829Z,3.00
2023-05-08T16:28:02.357Z,2.92
2023-05-08T16:33:04.476Z,2.90
2023-05-08T16:38:06.404Z,2.60
2023-05-08T16:43:08.715Z,2.80
2023-05-08T16:48:10.391Z,2.65
2023-05-08T16:53:11.838Z,2.80
2023-05-08T16:58:13.276Z,2.90
2023-05-08T17:03:14.794Z,3.10
2023-05-08T17:08:16.484Z,2.33
2023-05-08T17:13:18.134Z,2.80
2023-05-08T17:18:19.753Z,2.97
2023-05-08T17:23:21.183Z,2.38
2023-05-08T17:28:22.633Z,2.97
2023-05-08T17:33:24.184Z,2.90
2023-05-08T17:38:25.683Z,2.70
2023-05-08T17:43:28.610Z,2.78
2023-05-08T17:48:30.151Z,2.55
2023-05-08T17:53:32.355Z,2.90
2023-05-08T17:58:33.849Z,3.05
2023-05-08T18:03:36.011Z,2.78
2023-05-08T18:08:38.720Z,2.67
2023-05-08T18:13:41.054Z,2.80
2023-05-08T18:18:42.524Z,3.13
2023-05-08T18:23:44.327Z,2.88
2023-05-08T18:28:45.763Z,3.20
2023-05-08T18:33:47.776Z,3.50
2023-05-08T18:38:49.196Z,3.15
2023-05-08T18:43:50.599Z,3.45
2023-05-08T18:48:52.011Z,3.17
2023-05-08T18:53:54.046Z,3.50
2023-05-08T18:58:55.472Z,3.25
2023-05-08T19:03:57.048Z,3.17
2023-05-08T19:08:58.509Z,3.72
2023-05-08T19:13:59.930Z,3.88
2023-05-08T19:19:01.379Z,4.05
2023-05-08T19:24:02.964Z,4.95
2023-05-08T19:29:04.465Z,4.18
2023-05-08T19:34:05.995Z,3.90
2023-05-08T19:39:07.595Z,4.55
2023-05-08T19:44:09.270Z,4.85
2023-05-08T19:49:11.029Z,5.50
2023-05-08T19:54:12.442Z,5.22
2023-05-08T19:59:13.864Z,5.55
2023-05-08T20:04:15.311Z,5.00
2023-05-08T20:09:17.152Z,5.32
2023-05-08T20:14:18.584Z,4.93
2023-05-08T20:19:20.024Z,5.30
2023-05-08T20:24:21.460Z,6.50
2023-05-08T20:29:23.992Z,6.40
2023-05-08T20:34:25.547Z,6.47
2023-05-08T20:39:27.372Z,5.55
2023-05-08T20:44:28.784Z,5.85
2023-05-08T20:49:30.189Z,5.55
2023-05-08T20:54:31.766Z,6.03
2023-05-08T20:59:33.174Z,5.65
2023-05-08T21:04:34.618Z,8.30
2023-05-08T21:09:36.051Z,17.88
2023-05-08T21:14:37.517Z,13.32
2023-05-08T21:19:39.073Z,12.65
2023-05-08T21:24:44.352Z,14.57
2023-05-08T21:29:45.806Z,9.85
2023-05-08T21:34:47.273Z,7.35
2023-05-08T21:39:48.689Z,8.40
2023-05-08T21:44:50.175Z,9.20
2023-05-08T21:49:51.668Z,9.13
2023-05-08T21:54:53.174Z,9.00
2023-05-08T21:59:54.597Z,6.82
2023-05-08T22:04:56.005Z,6.80
2023-05-08T22:09:57.428Z,6.28
2023-05-08T22:14:58.849Z,5.78
2023-05-08T22:20:00.266Z,5.80
2023-05-08T22:25:01.906Z,6.50
2023-05-08T22:30:03.697Z,5.70
2023-05-08T22:35:06.543Z,5.90
2023-05-08T22:40:08.539Z,5.57
2023-05-08T22:45:11.746Z,6.47
2023-05-08T22:50:13.337Z,7.90
2023-05-08T22:55:15.754Z,7.30
2023-05-08T23:00:17.770Z,6.05
2023-05-08T23:05:19.253Z,6.25
2023-05-08T23:10:20.752Z,6.90
2023-05-08T23:15:22.159Z,6.60
2023-05-08T23:20:23.641Z,6.80
2023-05-08T23:25:25.259Z,7.38
2023-05-08T23:30:26.772Z,7.90
2023-05-08T23:35:28.454Z,7.40
2023-05-08T23:40:29.877Z,7.93
2023-05-08T23:45:31.319Z,7.38
2023-05-08T23:50:33.011Z,7.65
2023-05-08T23:55:37.840Z,7.03
